Aviation Digital Data Service (ADDS)

Output produced by METARs form (1302 UTC 21 February 2018)
found at http://www.aviationweather.gov/adds/metars/
 
EKYT 211250Z AUTO 24009KT 4600NDV BR SCT030/// BKN037/// 03/02 Q1026
EKAH 211250Z AUTO 25004KT 210V280 9999NDV FEW024/// BKN058/// 04/M00 Q1027
EKBI 211250Z AUTO 27006KT 230V290 9999NDV BKN026/// OVC063/// 03/M02 Q1027
EKRN 211250Z AUTO 18002KT 9999NDV -RASN OVC038/// 00/M02 Q1027
EKEB 211250Z AUTO 25005KT 220V280 9999NDV FEW054/// BKN150/// 04/M02 Q1028
EKKA 211250Z AUTO 24007KT 9999NDV BKN029/// BKN045/// 03/M00 Q1027 NOSIG
EKCH 211250Z 15003KT 9999 FEW025 BKN033 02/M02 Q1027 NOSIG
EKVD 211250Z 27005KT 230V300 CAVOK 04/M04 Q1028
EKAH 211250Z AUTO 25004KT 210V280 9999NDV FEW024/// BKN058/// 04/M00 Q1027
EKBI 211250Z AUTO 27006KT 230V290 9999NDV BKN026/// OVC063/// 03/M02 Q1027
EKCH 211250Z 15003KT 9999 FEW025 BKN033 02/M02 Q1027 NOSIG
EKEB 211250Z AUTO 25005KT 220V280 9999NDV FEW054/// BKN150/// 04/M02 Q1028
EKKA 211250Z AUTO 24007KT 9999NDV BKN029/// BKN045/// 03/M00 Q1027 NOSIG
EKOD 211250Z 29005KT 240V330 CAVOK 04/M05 Q1027
EKRK 211250Z AUTO 31005KT 270V340 9999NDV BKN049/// 03/M03 Q1027
EKRN 211250Z AUTO 18002KT 9999NDV -RASN OVC038/// 00/M02 Q1027
EKSB 211250Z 02003KT 9999 FEW035 BKN070 04/M04 Q1027
EKSP 211250Z 32003KT CAVOK 03/M05 Q1028 NOSIG RMK BKN060
EKVD 211250Z 27005KT 230V300 CAVOK 04/M04 Q1028
EKVG 211250Z AUTO 17012KT 9999NDV -SHRA SCT018/// 06/03 Q1023 RMK BKN020/// WIND 850FT 16020KT
EKVJ 211250Z 25008KT 9999 SCT025 BKN070 03/02 Q1027
EKYT 211250Z AUTO 24009KT 4600NDV BR SCT030/// BKN037/// 03/02 Q1026
EKOD 211250Z 29005KT 240V330 CAVOK 04/M05 Q1027
EKRK 211250Z AUTO 31005KT 270V340 9999NDV BKN049/// 03/M03 Q1027
EKSP 211250Z 32003KT CAVOK 03/M05 Q1028 NOSIG RMK BKN060
EKSB 211250Z 02003KT 9999 FEW035 BKN070 04/M04 Q1027
EKVJ 211250Z 25008KT 9999 SCT025 BKN070 03/02 Q1027